createdAt,value
2019-04-26T00:05:07.851Z,85.65
2019-04-26T00:15:07.713Z,85.94
2019-04-26T00:25:07.778Z,86.25
2019-04-26T00:35:07.795Z,86.02
2019-04-26T00:45:07.713Z,85.95
2019-04-26T00:55:07.701Z,85.20
2019-04-26T01:05:07.728Z,85.26
2019-04-26T01:15:07.740Z,84.89
2019-04-26T01:25:07.706Z,84.67
2019-04-26T01:35:07.658Z,85.44
2019-04-26T01:45:07.732Z,85.87
2019-04-26T01:55:07.826Z,85.71
2019-04-26T02:05:07.655Z,86.33
2019-04-26T02:15:07.736Z,85.80
2019-04-26T02:25:07.690Z,85.59
2019-04-26T02:35:07.645Z,85.83
2019-04-26T02:45:07.756Z,85.67
2019-04-26T02:55:07.725Z,85.07
2019-04-26T03:05:07.663Z,85.40
2019-04-26T03:15:14.155Z,84.36
2019-04-26T03:25:07.699Z,83.96
2019-04-26T03:35:07.851Z,84.09
2019-04-26T03:45:07.743Z,84.17
2019-04-26T03:55:07.717Z,83.93
2019-04-26T04:05:07.794Z,83.39
2019-04-26T04:15:07.742Z,83.98
2019-04-26T04:25:07.696Z,84.23
2019-04-26T04:35:08.410Z,84.82
2019-04-26T04:45:07.769Z,84.63
2019-04-26T04:55:08.177Z,84.80
2019-04-26T05:05:07.733Z,85.37
2019-04-26T05:15:07.742Z,86.03
2019-04-26T05:25:07.810Z,86.30
2019-04-26T05:35:07.670Z,85.46
2019-04-26T05:45:07.781Z,85.08
2019-04-26T05:55:09.449Z,85.48
2019-04-26T06:05:08.396Z,85.59
2019-04-26T06:15:07.663Z,85.09
2019-04-26T06:25:08.524Z,84.34
2019-04-26T06:35:09.520Z,85.26
2019-04-26T06:45:07.666Z,83.64
2019-04-26T06:55:07.701Z,82.67
2019-04-26T07:05:07.722Z,82.20
2019-04-26T07:15:07.999Z,82.10
2019-04-26T07:25:08.968Z,82.03
2019-04-26T07:35:08.717Z,81.09
2019-04-26T07:45:07.732Z,82.00
2019-04-26T07:55:08.647Z,81.94
2019-04-26T08:05:07.666Z,79.99
2019-04-26T08:15:07.756Z,79.71
2019-04-26T08:25:08.226Z,78.78
2019-04-26T08:35:14.365Z,78.98
2019-04-26T08:45:10.090Z,78.90
2019-04-26T08:55:07.681Z,78.06
2019-04-26T09:05:07.656Z,76.96
2019-04-26T09:15:07.713Z,74.64
2019-04-26T09:25:07.691Z,74.76
2019-04-26T09:35:11.374Z,73.90
2019-04-26T09:45:07.743Z,72.96
2019-04-26T09:55:07.715Z,72.81
2019-04-26T10:05:08.070Z,70.34
2019-04-26T10:15:07.701Z,68.59
2019-04-26T10:25:15.918Z,64.92
2019-04-26T10:35:07.936Z,64.26
2019-04-26T10:45:10.433Z,62.50
2019-04-26T10:55:07.682Z,62.53
2019-04-26T11:05:07.632Z,62.71
2019-04-26T11:15:07.706Z,60.78
2019-04-26T11:25:07.691Z,62.85
2019-04-26T11:35:08.609Z,54.40
2019-04-26T11:45:10.783Z,58.29
2019-04-26T11:55:07.705Z,55.96
2019-04-26T12:05:07.762Z,55.84
2019-04-26T12:15:08.410Z,52.89
2019-04-26T12:25:08.299Z,52.07
2019-04-26T12:35:09.704Z,52.21
2019-04-26T12:45:07.857Z,51.36
2019-04-26T12:55:07.811Z,51.35
2019-04-26T13:05:07.764Z,51.59
2019-04-26T13:15:08.031Z,52.85
2019-04-26T13:25:15.296Z,44.84
2019-04-26T13:35:11.301Z,46.41
2019-04-26T13:45:07.825Z,44.80
2019-04-26T13:55:08.810Z,44.20
2019-04-26T14:05:11.053Z,41.32
2019-04-26T14:15:08.498Z,41.32
2019-04-26T14:25:07.799Z,39.08
2019-04-26T14:35:11.494Z,41.00
2019-04-26T14:45:07.727Z,45.29
2019-04-26T14:55:07.677Z,47.32
2019-04-26T15:05:09.345Z,44.15
2019-04-26T15:15:07.716Z,38.80
2019-04-26T15:25:11.382Z,43.27
2019-04-26T15:35:07.759Z,42.89
2019-04-26T15:45:07.754Z,39.96
2019-04-26T15:55:08.521Z,40.98
2019-04-26T16:05:07.770Z,44.40
2019-04-26T16:15:13.043Z,44.32
2019-04-26T16:25:07.961Z,48.42
2019-04-26T16:35:07.776Z,50.09
2019-04-26T16:45:08.116Z,48.03
2019-04-26T16:55:17.859Z,47.40
2019-04-26T17:05:17.623Z,47.52
2019-04-26T17:15:07.744Z,49.04
2019-04-26T17:25:07.885Z,49.21
2019-04-26T17:35:07.789Z,48.96
2019-04-26T17:45:07.775Z,50.17
2019-04-26T17:55:11.213Z,52.06
2019-04-26T18:05:07.764Z,51.67
2019-04-26T18:15:11.518Z,54.39
2019-04-26T18:25:11.100Z,54.65
2019-04-26T18:35:09.257Z,57.43
2019-04-26T18:45:07.843Z,61.59
2019-04-26T18:55:07.713Z,65.71
2019-04-26T19:05:07.771Z,66.75
2019-04-26T19:15:07.878Z,68.83
2019-04-26T19:25:18.945Z,66.35
2019-04-26T19:35:12.078Z,65.08
2019-04-26T19:45:13.895Z,62.43
2019-04-26T19:55:11.283Z,67.80
2019-04-26T20:05:07.974Z,71.45
2019-04-26T20:15:07.809Z,74.47
2019-04-26T20:25:07.746Z,79.41
2019-04-26T20:35:07.684Z,82.61
2019-04-26T20:45:08.490Z,83.48
2019-04-26T20:55:07.769Z,83.02
2019-04-26T21:05:11.364Z,84.38
2019-04-26T21:15:07.822Z,85.51
2019-04-26T21:25:07.734Z,86.34
2019-04-26T21:35:07.789Z,86.82
2019-04-26T21:45:07.799Z,87.62
2019-04-26T21:55:07.797Z,88.89
2019-04-26T22:05:11.454Z,88.98
2019-04-26T22:15:07.815Z,89.68
2019-04-26T22:25:07.784Z,90.69
2019-04-26T22:35:07.733Z,90.71
2019-04-26T22:45:09.431Z,91.70
2019-04-26T22:55:07.751Z,92.17
2019-04-26T23:05:07.745Z,93.60
2019-04-26T23:15:07.805Z,86.05
2019-04-26T23:25:07.770Z,79.20
2019-04-26T23:35:07.755Z,75.43
2019-04-26T23:45:10.693Z,72.67
2019-04-26T23:55:09.177Z,71.51
